Time;durP1;ratioP1;P1;durP2;ratioP2;P2;SDS_P1;SDS_P2;PMS_P1;PMS_P2;Temp;Humidity;BMP_temperature;BMP_pressure;BME280_temperature;BME280_humidity;BME280_pressure;Samples;Min_cycle;Max_cycle;Signal;HPM_P1;HPM_P2
2022/06/15 00:01:44;;;;;;;8.05;4.78;;;13.60;99.90;;;;;;6151839;28;20051;-67
2022/06/15 00:04:46;;;;;;;8.90;4.85;;;13.60;99.90;;;;;;6149371;28;20066;-68
2022/06/15 00:07:48;;;;;;;8.57;4.90;;;13.60;99.90;;;;;;6151679;28;20051;-69
2022/06/15 00:10:52;;;;;;;8.80;4.82;;;13.50;99.90;;;;;;6136102;29;20048;-68
2022/06/15 00:13:55;;;;;;;7.70;4.90;;;13.40;99.90;;;;;;6136926;28;20812;-69
2022/06/15 00:16:57;;;;;;;;;;;13.30;99.90;;;;;;6151783;29;20051;-67
2022/06/15 00:19:59;;;;;;;9.82;5.40;;;13.30;99.90;;;;;;6151481;28;20442;-67
2022/06/15 00:23:01;;;;;;;8.25;5.22;;;13.20;99.90;;;;;;6148617;29;20059;-68
2022/06/15 00:26:05;;;;;;;8.15;5.07;;;13.10;99.90;;;;;;6150677;29;20062;-68
2022/06/15 00:29:07;;;;;;;11.20;5.45;;;13.10;99.90;;;;;;6145736;29;20055;-69
2022/06/15 00:32:09;;;;;;;9.45;5.20;;;13.10;99.90;;;;;;6150977;28;20059;-68
2022/06/15 00:35:11;;;;;;;10.80;5.22;;;13.10;99.90;;;;;;6149514;28;20047;-68
2022/06/15 00:38:13;;;;;;;8.23;5.03;;;13.10;99.90;;;;;;6151233;28;20039;-68
2022/06/15 00:41:19;;;;;;;9.35;5.50;;;13.10;99.90;;;;;;6150369;29;20066;-68
2022/06/15 00:44:36;;;;;;;9.10;5.28;;;13.00;99.90;;;;;;6134884;28;20511;-68
2022/06/15 00:47:41;;;;;;;8.13;5.60;;;13.00;99.90;;;;;;6137950;28;20511;-68
2022/06/15 00:50:43;;;;;;;8.68;4.90;;;13.00;99.90;;;;;;6142202;28;20058;-68
2022/06/15 00:53:45;;;;;;;8.90;5.05;;;13.00;99.90;;;;;;6144434;28;20432;-69
2022/06/15 00:56:49;;;;;;;8.55;5.22;;;13.00;99.90;;;;;;6150435;28;20066;-68
2022/06/15 00:59:54;;;;;;;9.13;5.00;;;13.00;99.90;;;;;;6150228;29;20055;-68
2022/06/15 01:02:56;;;;;;;7.20;5.32;;;13.00;99.90;;;;;;6141833;29;20043;-68
2022/06/15 01:06:04;;;;;;;11.50;5.38;;;13.00;99.90;;;;;;6149986;28;20055;-68
2022/06/15 01:09:20;;;;;;;8.02;5.10;;;13.00;99.90;;;;;;6148980;28;20071;-68
2022/06/15 01:12:29;;;;;;;8.13;4.88;;;13.00;99.90;;;;;;6148137;28;20047;-68
2022/06/15 01:15:39;;;;;;;6.95;5.15;;;13.00;99.90;;;;;;6126255;29;20063;-68
2022/06/15 01:18:47;;;;;;;9.93;5.47;;;12.90;99.90;;;;;;6142820;28;20129;-68
2022/06/15 01:21:55;;;;;;;9.43;4.85;;;12.90;99.90;;;;;;6147104;28;20058;-68
2022/06/15 01:25:23;;;;;;;10.55;5.20;;;12.90;99.90;;;;;;6150576;28;20413;-68
2022/06/15 01:28:42;;;;;;;7.78;5.13;;;12.90;99.90;;;;;;6150216;28;20055;-68
2022/06/15 01:31:50;;;;;;;8.43;5.13;;;12.90;99.90;;;;;;6149851;28;20043;-68
2022/06/15 01:34:59;;;;;;;8.85;5.10;;;12.90;99.90;;;;;;6142695;28;20055;-68
2022/06/15 01:38:19;;;;;;;8.50;4.78;;;12.80;99.90;;;;;;6126594;29;20066;-69
2022/06/15 01:41:28;;;;;;;9.82;5.40;;;12.80;99.90;;;;;;6148847;28;20039;-68
2022/06/15 01:44:34;;;;;;;7.60;5.22;;;12.70;99.90;;;;;;6147912;29;20058;-68
2022/06/15 01:47:40;;;;;;;9.30;5.28;;;12.70;99.90;;;;;;6146293;28;20074;-68
2022/06/15 01:50:51;;;;;;;9.48;5.20;;;12.60;99.90;;;;;;6149032;28;20055;-68
2022/06/15 01:53:57;;;;;;;7.45;5.47;;;12.60;99.90;;;;;;6145831;28;20419;-69
2022/06/15 01:57:02;;;;;;;6.85;5.07;;;12.60;99.90;;;;;;6142996;29;20062;-69
2022/06/15 02:00:07;;;;;;;10.70;5.55;;;12.50;99.90;;;;;;6150820;28;20043;-68
2022/06/15 02:03:16;;;;;;;8.55;5.80;;;12.50;99.90;;;;;;6148317;28;20054;-68
2022/06/15 02:06:28;;;;;;;8.05;5.65;;;12.40;99.90;;;;;;6148973;29;20050;-68
2022/06/15 02:09:35;;;;;;;10.45;5.68;;;12.30;99.90;;;;;;6135384;28;20412;-68
2022/06/15 02:12:45;;;;;;;8.27;5.78;;;12.30;99.90;;;;;;6127170;28;20457;-68
2022/06/15 02:15:52;;;;;;;8.05;5.43;;;12.30;99.90;;;;;;6148567;28;20051;-68
2022/06/15 02:18:56;;;;;;;10.32;5.75;;;12.30;99.90;;;;;;6148277;28;20488;-68
2022/06/15 02:22:00;;;;;;;9.00;5.55;;;12.20;99.90;;;;;;6148834;29;20432;-68
2022/06/15 02:25:07;;;;;;;8.07;5.45;;;12.20;99.90;;;;;;6145622;28;20483;-68
2022/06/15 02:28:09;;;;;;;10.73;5.38;;;12.20;99.90;;;;;;6129030;28;20047;-68
2022/06/15 02:31:11;;;;;;;8.98;5.60;;;12.20;99.90;;;;;;6147770;28;20051;-68
2022/06/15 02:34:15;;;;;;;12.23;6.00;;;12.20;99.90;;;;;;6146181;28;20520;-68
2022/06/15 02:37:17;;;;;;;;;;;12.10;99.90;;;;;;6149078;28;20054;-68
2022/06/15 02:40:23;;;;;;;9.65;5.47;;;12.10;99.90;;;;;;6140826;29;19923;-69
2022/06/15 02:43:27;;;;;;;10.13;5.90;;;12.10;99.90;;;;;;6134746;29;20066;-69
2022/06/15 02:46:35;;;;;;;10.38;5.82;;;12.00;99.90;;;;;;6143423;28;20134;-68
2022/06/15 02:49:39;;;;;;;11.30;5.95;;;12.00;99.90;;;;;;6127526;29;20059;-68
2022/06/15 02:52:44;;;;;;;10.85;6.15;;;11.90;99.90;;;;;;6147654;28;20137;-68
2022/06/15 02:55:48;;;;;;;10.75;6.10;;;11.90;99.90;;;;;;6148714;28;20060;-68
2022/06/15 02:58:52;;;;;;;10.20;5.72;;;11.90;99.90;;;;;;6147725;28;20051;-68
2022/06/15 03:01:55;;;;;;;12.60;6.55;;;11.90;99.90;;;;;;6128938;29;20495;-68
2022/06/15 03:04:59;;;;;;;10.13;6.60;;;11.90;99.90;;;;;;6146732;28;20063;-68
2022/06/15 03:08:01;;;;;;;9.02;6.82;;;11.90;99.90;;;;;;6147359;29;20408;-68
2022/06/15 03:11:02;;;;;;;8.68;6.75;;;11.90;99.90;;;;;;6149314;29;20047;-68
2022/06/15 03:14:04;;;;;;;10.75;6.80;;;11.90;99.90;;;;;;6147934;28;20062;-68
2022/06/15 03:17:06;;;;;;;12.90;7.60;;;11.90;99.90;;;;;;6150628;28;20050;-68
2022/06/15 03:20:12;;;;;;;11.07;7.22;;;12.00;99.90;;;;;;6152244;29;20051;-67
2022/06/15 03:23:14;;;;;;;10.23;6.95;;;11.90;99.90;;;;;;6151189;28;20051;-68
2022/06/15 03:26:16;;;;;;;13.00;7.28;;;12.00;99.90;;;;;;6153678;28;20054;-68
2022/06/15 03:29:18;;;;;;;9.68;7.43;;;12.00;99.90;;;;;;6152143;29;20051;-68
2022/06/15 03:32:21;;;;;;;11.07;6.80;;;12.00;99.90;;;;;;6152338;28;20523;-68
2022/06/15 03:35:34;;;;;;;11.48;7.90;;;12.00;99.90;;;;;;6131374;28;20420;-68
2022/06/15 03:38:36;;;;;;;11.35;7.90;;;12.10;99.90;;;;;;6131916;29;20055;-68
2022/06/15 03:41:38;;;;;;;12.30;7.70;;;12.00;99.90;;;;;;6129666;29;20048;-68
2022/06/15 03:44:41;;;;;;;11.10;7.38;;;12.10;99.90;;;;;;6136427;29;20055;-68
2022/06/15 03:47:43;;;;;;;10.73;6.65;;;12.10;99.90;;;;;;6146593;29;20052;-68
2022/06/15 03:50:46;;;;;;;14.05;7.80;;;12.10;99.90;;;;;;6145973;28;20377;-68
2022/06/15 03:53:48;;;;;;;10.75;6.78;;;12.10;99.90;;;;;;6137320;28;20059;-68
2022/06/15 03:56:50;;;;;;;12.35;7.18;;;12.20;99.90;;;;;;6147575;28;20420;-68
2022/06/15 03:59:52;;;;;;;11.43;7.03;;;12.20;99.90;;;;;;6152686;28;20511;-68
2022/06/15 04:02:54;;;;;;;9.15;6.15;;;12.30;99.90;;;;;;6150787;28;20121;-68
2022/06/15 04:05:59;;;;;;;10.45;6.38;;;12.40;99.90;;;;;;6151402;29;20047;-68
2022/06/15 04:09:01;;;;;;;13.65;6.85;;;12.40;99.90;;;;;;6139683;28;20082;-68
2022/06/15 04:12:08;;;;;;;12.70;6.57;;;12.50;99.90;;;;;;6151760;28;20047;-68
2022/06/15 04:15:11;;;;;;;8.95;5.30;;;12.60;99.90;;;;;;6151659;29;20492;-68
2022/06/15 04:18:13;;;;;;;7.40;6.00;;;12.60;99.90;;;;;;6150179;28;20415;-68
2022/06/15 04:21:16;;;;;;;8.77;4.97;;;12.70;99.90;;;;;;6151198;28;20070;-68
2022/06/15 04:24:19;;;;;;;10.32;5.35;;;12.80;99.90;;;;;;6147624;28;20048;-68
2022/06/15 04:27:21;;;;;;;6.55;4.43;;;12.80;99.90;;;;;;6131661;29;20130;-68
2022/06/15 04:30:23;;;;;;;8.63;4.30;;;13.00;99.90;;;;;;6151434;28;20511;-68
2022/06/15 04:33:28;;;;;;;9.27;4.40;;;13.00;99.90;;;;;;6151278;28;20066;-68
2022/06/15 04:36:31;;;;;;;9.25;3.95;;;13.20;99.90;;;;;;6148976;28;20106;-68
2022/06/15 04:39:33;;;;;;;6.80;3.60;;;13.20;99.90;;;;;;6148270;28;20058;-68
2022/06/15 04:42:37;;;;;;;6.50;3.70;;;13.30;99.90;;;;;;6145701;29;20055;-68
2022/06/15 04:45:39;;;;;;;8.07;4.20;;;13.40;99.90;;;;;;6150599;28;20055;-68
2022/06/15 04:48:41;;;;;;;8.13;4.13;;;13.40;99.90;;;;;;6149665;29;20445;-68
2022/06/15 04:51:44;;;;;;;8.15;3.85;;;13.40;99.90;;;;;;6149617;28;20528;-69
2022/06/15 04:54:46;;;;;;;5.45;3.50;;;13.50;99.90;;;;;;6150277;28;20070;-68
2022/06/15 04:57:53;;;;;;;4.15;2.70;;;13.50;99.90;;;;;;6149102;28;20051;-68
2022/06/15 05:00:54;;;;;;;5.78;3.70;;;13.60;99.90;;;;;;6136589;28;20110;-69
2022/06/15 05:03:56;;;;;;;5.35;3.80;;;13.60;99.90;;;;;;6146520;29;20538;-68
2022/06/15 05:07:00;;;;;;;6.97;4.30;;;13.80;99.90;;;;;;6149744;29;20516;-67
2022/06/15 05:10:02;;;;;;;6.70;4.03;;;14.00;99.90;;;;;;6147769;28;20054;-68
2022/06/15 05:13:04;;;;;;;9.43;4.28;;;14.10;99.90;;;;;;6149817;28;20047;-68
2022/06/15 05:16:06;;;;;;;5.85;4.18;;;14.10;99.90;;;;;;6142153;29;20043;-68
2022/06/15 05:19:08;;;;;;;10.30;4.72;;;14.10;99.90;;;;;;6141651;28;20130;-68
2022/06/15 05:22:12;;;;;;;6.35;4.70;;;14.10;99.90;;;;;;6150476;28;20047;-68
2022/06/15 05:25:13;;;;;;;8.38;5.28;;;14.10;99.90;;;;;;6149354;28;20059;-68
2022/06/15 05:28:15;;;;;;;9.02;5.30;;;14.10;99.90;;;;;;6149499;28;20535;-68
2022/06/15 05:31:23;;;;;;;8.50;4.60;;;14.10;99.90;;;;;;6150116;28;20078;-68
2022/06/15 05:34:25;;;;;;;9.20;4.72;;;14.10;99.90;;;;;;6130328;29;20441;-68
2022/06/15 05:37:29;;;;;;;6.97;4.00;;;14.10;99.90;;;;;;6132883;29;20416;-68
2022/06/15 05:40:31;;;;;;;7.70;3.58;;;14.10;99.90;;;;;;6149147;29;20051;-68
2022/06/15 05:43:33;;;;;;;8.13;4.15;;;14.20;99.90;;;;;;6150405;28;20612;-68
2022/06/15 05:46:39;;;;;;;11.98;4.53;;;14.30;99.90;;;;;;6148632;28;20062;-68
2022/06/15 05:49:41;;;;;;;9.80;4.00;;;14.40;99.90;;;;;;6143074;28;20143;-67
2022/06/15 05:52:45;;;;;;;6.30;4.10;;;14.50;99.90;;;;;;6126863;29;20063;-68
2022/06/15 05:55:47;;;;;;;8.80;4.03;;;14.60;99.90;;;;;;6128518;29;20059;-68
2022/06/15 05:58:49;;;;;;;9.45;4.18;;;14.60;99.90;;;;;;6148867;28;20062;-72
2022/06/15 06:01:51;;;;;;;11.73;4.65;;;14.70;99.90;;;;;;6143425;28;20043;-70
2022/06/15 06:04:53;;;;;;;9.32;5.10;;;14.80;99.90;;;;;;6142662;28;20057;-70
2022/06/15 06:07:56;;;;;;;11.30;5.25;;;14.90;99.90;;;;;;6147056;28;20043;-70
2022/06/15 06:10:58;;;;;;;68.85;7.60;;;14.90;99.90;;;;;;6146541;29;20138;-68
2022/06/15 06:14:00;;;;;;;11.18;5.15;;;15.00;99.90;;;;;;6148313;28;20074;-67
2022/06/15 06:17:02;;;;;;;9.05;4.35;;;14.90;99.90;;;;;;6143863;28;20477;-67
2022/06/15 06:20:05;;;;;;;11.68;5.50;;;14.80;99.90;;;;;;6144914;29;20055;-67
2022/06/15 06:23:08;;;;;;;9.33;5.20;;;14.80;99.90;;;;;;6142347;28;20051;-68
2022/06/15 06:26:18;;;;;;;8.98;5.13;;;14.80;99.90;;;;;;6145382;28;20051;-68
2022/06/15 06:29:20;;;;;;;9.27;5.25;;;14.80;99.90;;;;;;6144709;28;20043;-67
2022/06/15 06:32:22;;;;;;;8.52;4.80;;;14.80;99.90;;;;;;6146986;29;20057;-67
2022/06/15 06:35:24;;;;;;;9.40;5.32;;;14.90;99.90;;;;;;6148626;28;20082;-67
2022/06/15 06:38:28;;;;;;;9.45;5.13;;;15.00;99.90;;;;;;6147591;29;20056;-67
2022/06/15 06:41:32;;;;;;;8.52;5.25;;;15.10;99.90;;;;;;6137156;28;20520;-67
2022/06/15 06:44:34;;;;;;;9.73;5.30;;;15.20;99.90;;;;;;6148666;29;20505;-67
2022/06/15 06:47:36;;;;;;;8.00;4.25;;;15.30;99.90;;;;;;6148754;28;20063;-68
2022/06/15 06:50:39;;;;;;;7.70;4.65;;;15.40;99.90;;;;;;6151333;29;20047;-68
2022/06/15 06:53:44;;;;;;;8.33;4.70;;;15.50;99.90;;;;;;6152931;28;20051;-67
2022/06/15 06:56:47;;;;;;;8.18;4.07;;;15.50;99.90;;;;;;6148270;28;20054;-67
2022/06/15 06:59:49;;;;;;;8.07;4.20;;;15.60;99.90;;;;;;6147344;28;20122;-67
2022/06/15 07:02:51;;;;;;;6.90;4.50;;;15.70;99.90;;;;;;6148365;28;20167;-67
2022/06/15 07:06:02;;;;;;;10.68;4.93;;;15.80;99.90;;;;;;6147569;28;20047;-67
2022/06/15 07:09:05;;;;;;;7.05;4.15;;;15.90;99.90;;;;;;6144862;28;20131;-67
2022/06/15 07:12:07;;;;;;;;;;;16.00;99.90;;;;;;6151621;28;20415;-68
2022/06/15 07:15:11;;;;;;;6.47;3.42;;;15.90;99.90;;;;;;6149257;29;19976;-67
2022/06/15 07:18:13;;;;;;;11.18;4.03;;;16.00;99.90;;;;;;6151047;29;20055;-67
2022/06/15 07:21:20;;;;;;;8.05;3.53;;;16.20;99.90;;;;;;6149467;28;20060;-68
2022/06/15 07:24:24;;;;;;;6.82;3.83;;;16.30;99.90;;;;;;6151551;28;20058;-68
2022/06/15 07:27:26;;;;;;;8.20;3.75;;;16.40;99.90;;;;;;6150368;28;20062;-67
2022/06/15 07:30:29;;;;;;;9.68;3.58;;;16.50;99.90;;;;;;6150138;28;20043;-67
2022/06/15 07:33:31;;;;;;;3.13;2.03;;;16.60;99.90;;;;;;6137195;29;20068;-67
2022/06/15 07:36:33;;;;;;;8.68;3.95;;;16.70;99.90;;;;;;6145090;28;20047;-67
2022/06/15 07:39:37;;;;;;;8.40;3.67;;;17.00;99.90;;;;;;6153726;28;20051;-67
2022/06/15 07:42:40;;;;;;;7.35;3.35;;;17.10;99.90;;;;;;6149585;28;20511;-67
2022/06/15 07:45:42;;;;;;;7.13;3.17;;;17.20;99.90;;;;;;6152633;29;20039;-67
2022/06/15 07:52:05;;;;;;;8.15;2.80;;;17.70;99.90;;;;;;6140323;29;20051;-66
2022/06/15 07:55:10;;;;;;;;;;;17.90;99.90;;;;;;6145273;29;20087;-66
2022/06/15 07:58:12;;;;;;;5.50;2.17;;;18.10;99.90;;;;;;6149310;28;19928;-67
2022/06/15 08:01:15;;;;;;;4.43;2.27;;;18.40;99.90;;;;;;6146576;28;20047;-67
2022/06/15 08:04:17;;;;;;;7.55;2.55;;;18.50;99.90;;;;;;6144862;28;20055;-67
2022/06/15 08:07:19;;;;;;;8.43;2.53;;;18.60;99.90;;;;;;6145126;29;20443;-67
2022/06/15 08:10:24;;;;;;;6.45;2.40;;;19.20;99.90;;;;;;6146586;28;20140;-68
2022/06/15 08:13:26;;;;;;;6.45;2.67;;;19.60;99.90;;;;;;6147041;29;20419;-69
2022/06/15 08:16:28;;;;;;;8.05;2.50;;;19.70;99.90;;;;;;6145783;28;20047;-67
2022/06/15 08:19:32;;;;;;;7.40;3.10;;;19.90;99.90;;;;;;6146868;28;20055;-68
2022/06/15 08:22:35;;;;;;;6.05;2.25;;;19.90;99.90;;;;;;6136317;29;20064;-67
2022/06/15 08:25:41;;;;;;;6.25;2.60;;;19.80;99.90;;;;;;6152382;28;20078;-67
2022/06/15 08:28:46;;;;;;;5.53;2.10;;;19.50;99.90;;;;;;6149554;28;20055;-67
2022/06/15 08:31:48;;;;;;;6.13;1.92;;;19.20;99.90;;;;;;6147215;28;20051;-68
2022/06/15 08:34:50;;;;;;;3.25;1.40;;;19.20;99.90;;;;;;6150635;29;20066;-66
2022/06/15 08:37:53;;;;;;;9.95;3.05;;;19.50;99.90;;;;;;6150170;28;20058;-66
2022/06/15 08:41:00;;;;;;;5.90;2.63;;;19.90;99.90;;;;;;6136833;28;20058;-67
2022/06/15 08:44:14;;;;;;;6.93;2.50;;;20.30;99.90;;;;;;6146808;29;20514;-67
2022/06/15 08:47:28;;;;;;;4.00;2.20;;;20.30;99.90;;;;;;6150203;28;20421;-66
2022/06/15 08:50:35;;;;;;;7.25;2.58;;;20.60;99.90;;;;;;6144791;28;20496;-67
2022/06/15 08:53:46;;;;;;;5.47;2.10;;;20.30;99.90;;;;;;6145870;29;20063;-68
2022/06/15 08:56:55;;;;;;;5.28;2.70;;;19.50;99.90;;;;;;6143106;29;20055;-67
2022/06/15 09:00:04;;;;;;;5.90;2.30;;;19.20;99.90;;;;;;6146650;28;20089;-67
2022/06/15 09:03:21;;;;;;;5.55;2.30;;;19.10;99.90;;;;;;6145723;29;20509;-68
2022/06/15 09:06:35;;;;;;;5.35;2.42;;;19.00;99.90;;;;;;6147297;28;20059;-67
2022/06/15 09:09:48;;;;;;;3.65;1.98;;;19.20;99.90;;;;;;6151055;29;20047;-66
2022/06/15 09:13:03;;;;;;;5.95;2.30;;;19.30;99.90;;;;;;6146946;28;20063;-67
2022/06/15 09:16:13;;;;;;;6.50;2.35;;;19.60;99.90;;;;;;6130948;29;20051;-67
2022/06/15 09:19:19;;;;;;;4.47;2.33;;;19.60;99.90;;;;;;6149749;29;20048;-67
2022/06/15 09:22:25;;;;;;;4.07;1.40;;;19.20;99.90;;;;;;6144721;29;20051;-66
2022/06/15 09:25:34;;;;;;;7.63;2.60;;;19.30;99.90;;;;;;6143401;29;20380;-66
2022/06/15 09:28:43;;;;;;;6.40;2.67;;;19.70;99.90;;;;;;6145969;28;20122;-67
2022/06/15 09:31:50;;;;;;;5.78;2.15;;;19.90;99.90;;;;;;6140203;29;20043;-66
2022/06/15 09:34:56;;;;;;;7.70;2.50;;;20.10;99.90;;;;;;6143909;29;20052;-67
2022/06/15 09:38:00;;;;;;;5.22;2.50;;;20.20;99.90;;;;;;6145777;29;20052;-67
2022/06/15 09:41:09;;;;;;;4.88;2.47;;;19.60;99.90;;;;;;6147203;28;20126;-67
2022/06/15 09:44:19;;;;;;;6.32;3.10;;;19.40;99.90;;;;;;6141394;29;20050;-68
2022/06/15 09:47:38;;;;;;;7.32;3.30;;;18.80;99.90;;;;;;6140881;29;20131;-67
2022/06/15 09:50:49;;;;;;;7.65;2.85;;;18.40;99.90;;;;;;6133616;29;20051;-67
2022/06/15 09:54:01;;;;;;;8.43;3.08;;;18.50;99.90;;;;;;6145645;28;20520;-68
2022/06/15 09:57:04;;;;;;;3.83;1.75;;;18.80;99.90;;;;;;6142324;28;20047;-66
2022/06/15 10:00:15;;;;;;;4.83;1.73;;;18.90;99.90;;;;;;6132722;28;20051;-66
2022/06/15 10:03:23;;;;;;;4.57;2.33;;;19.20;99.90;;;;;;6147170;28;20047;-66
2022/06/15 10:06:29;;;;;;;5.53;2.35;;;19.50;99.90;;;;;;6145064;28;20086;-66
2022/06/15 10:09:36;;;;;;;7.55;2.47;;;19.90;99.90;;;;;;6148499;28;20070;-66
2022/06/15 10:12:58;;;;;;;6.22;2.30;;;20.20;99.90;;;;;;6147653;29;20055;-67
2022/06/15 10:16:04;;;;;;;3.40;1.90;;;20.10;99.90;;;;;;6131325;29;20070;-68
2022/06/15 10:19:09;;;;;;;7.70;2.55;;;20.10;98.90;;;;;;6138905;28;20062;-66
2022/06/15 10:22:23;;;;;;;4.28;2.25;;;20.40;99.90;;;;;;6139344;28;20056;-68
2022/06/15 10:25:27;;;;;;;5.22;2.33;;;20.50;98.30;;;;;;6145843;28;20055;-68
2022/06/15 10:28:34;;;;;;;5.30;1.83;;;20.60;98.20;;;;;;6146798;28;20066;-66
2022/06/15 10:31:38;;;;;;;3.63;1.80;;;20.70;99.90;;;;;;6141540;29;20054;-66
2022/06/15 10:34:57;;;;;;;5.85;2.55;;;20.90;99.90;;;;;;6143928;28;20051;-67
2022/06/15 10:38:04;;;;;;;3.42;1.45;;;21.30;99.90;;;;;;6147229;29;20079;-67
2022/06/15 10:44:30;;;;;;;5.15;2.65;;;21.70;99.30;;;;;;6144785;29;20484;-67
2022/06/15 10:47:41;;;;;;;5.20;3.00;;;21.80;96.30;;;;;;6147484;28;20051;-66
2022/06/15 10:50:48;;;;;;;8.40;3.67;;;21.70;95.60;;;;;;6146992;28;20046;-67
2022/06/15 10:53:54;;;;;;;3.17;1.60;;;20.80;96.00;;;;;;6141931;29;20066;-67
2022/06/15 11:03:44;;;;;;;3.60;2.53;;;20.50;96.30;;;;;;6149874;28;20071;-68
2022/06/15 11:06:50;;;;;;;6.57;2.70;;;20.60;98.10;;;;;;6144341;28;20512;-68
2022/06/15 11:10:09;;;;;;;5.00;3.22;;;20.90;96.00;;;;;;6137728;28;20046;-67
2022/06/15 11:13:29;;;;;;;5.32;2.58;;;21.10;96.50;;;;;;6141069;29;20051;-68
2022/06/15 11:19:57;;;;;;;4.88;2.30;;;21.00;96.20;;;;;;6148506;28;20102;-70
2022/06/15 11:23:07;;;;;;;5.18;1.98;;;20.50;95.20;;;;;;6144398;29;20051;-68
2022/06/15 11:29:51;;;;;;;7.35;2.28;;;20.90;96.30;;;;;;6139451;29;20052;-68
2022/06/15 11:33:00;;;;;;;3.85;1.73;;;20.90;95.10;;;;;;6139161;28;20063;-68
2022/06/15 11:36:14;;;;;;;5.40;2.10;;;21.00;96.10;;;;;;6147604;28;20086;-68
2022/06/15 11:39:20;;;;;;;4.75;1.90;;;20.70;96.10;;;;;;6148280;28;20047;-68
2022/06/15 11:42:22;;;;;;;4.95;2.05;;;20.40;98.00;;;;;;6148424;28;20051;-68
2022/06/15 11:45:31;;;;;;;4.47;2.22;;;20.40;97.70;;;;;;6145698;28;20039;-68
2022/06/15 11:48:48;;;;;;;5.88;2.40;;;20.70;97.30;;;;;;6148439;29;20055;-68
2022/06/15 11:52:06;;;;;;;6.43;2.30;;;20.80;96.80;;;;;;6151389;28;20103;-68
2022/06/15 11:55:38;;;;;;;6.72;2.60;;;20.60;98.20;;;;;;6149647;28;20051;-68
2022/06/15 11:58:53;;;;;;;6.90;2.80;;;20.90;97.40;;;;;;6118770;28;20070;-68
2022/06/15 12:02:00;;;;;;;5.03;2.17;;;21.10;98.00;;;;;;6145119;28;20501;-68
2022/06/15 12:05:20;;;;;;;6.72;2.63;;;21.00;97.00;;;;;;6135777;28;20046;-68
2022/06/15 12:08:35;;;;;;;8.05;2.65;;;20.80;97.40;;;;;;6150095;28;20428;-69
2022/06/15 12:15:10;;;;;;;4.40;2.42;;;20.80;97.80;;;;;;6128460;28;20048;-69
2022/06/15 12:18:51;;;;;;;7.20;2.85;;;20.80;97.50;;;;;;6135017;28;20412;-68
2022/06/15 12:21:58;;;;;;;4.88;2.70;;;20.80;98.30;;;;;;6149089;28;20044;-71
2022/06/15 12:25:13;;;;;;;6.53;2.60;;;20.60;97.60;;;;;;6142389;28;20054;-67
2022/06/15 12:28:19;;;;;;;6.50;2.90;;;20.50;98.40;;;;;;6147925;28;20190;-68
2022/06/15 12:31:28;;;;;;;8.25;2.80;;;20.70;98.20;;;;;;6134442;28;20047;-69
2022/06/15 12:34:40;;;;;;;8.32;3.03;;;20.70;97.50;;;;;;6146408;28;20047;-67
2022/06/15 12:37:47;;;;;;;6.28;2.53;;;20.60;98.70;;;;;;6141550;28;20048;-68
2022/06/15 12:40:53;;;;;;;7.20;2.88;;;20.70;98.20;;;;;;6127933;29;20058;-69
2022/06/15 12:43:55;;;;;;;8.77;3.05;;;20.80;98.60;;;;;;6146050;29;20051;-67
2022/06/15 12:46:58;;;;;;;9.95;3.10;;;20.90;98.80;;;;;;6148264;28;20051;-68
2022/06/15 12:50:25;;;;;;;4.32;2.30;;;21.10;97.60;;;;;;6150329;28;20063;-67
2022/06/15 12:53:39;;;;;;;4.93;2.50;;;20.80;98.50;;;;;;6145576;29;20086;-67
2022/06/15 12:56:50;;;;;;;4.00;2.03;;;21.10;98.10;;;;;;6143951;29;20095;-68
2022/06/15 13:00:03;;;;;;;6.15;2.90;;;21.40;98.70;;;;;;6146781;29;20047;-67
2022/06/15 13:03:15;;;;;;;7.18;2.70;;;21.30;97.50;;;;;;6147106;28;20046;-70
2022/06/15 13:06:26;;;;;;;6.35;2.80;;;21.10;96.50;;;;;;6140903;29;20054;-68
2022/06/15 13:09:28;;;;;;;8.45;3.20;;;21.20;97.80;;;;;;6144713;28;20066;-69
2022/06/15 13:12:36;;;;;;;5.97;3.00;;;21.20;97.10;;;;;;6143353;28;20210;-68
2022/06/15 13:15:56;;;;;;;6.95;2.65;;;20.70;97.70;;;;;;6145037;28;20146;-68
2022/06/15 13:18:59;;;;;;;8.50;2.83;;;20.90;98.80;;;;;;6148885;28;20059;-69
2022/06/15 13:22:12;;;;;;;8.88;3.08;;;20.90;98.10;;;;;;6143883;28;20182;-69
2022/06/15 13:25:19;;;;;;;6.00;2.95;;;21.00;98.30;;;;;;6147976;28;20130;-69
2022/06/15 13:28:28;;;;;;;7.60;3.10;;;21.00;97.90;;;;;;6146513;29;20071;-70
2022/06/15 13:31:42;;;;;;;5.07;2.88;;;20.70;97.50;;;;;;6126427;29;20051;-68
2022/06/15 13:34:47;;;;;;;7.25;3.10;;;20.90;97.90;;;;;;6142927;28;20051;-68
2022/06/15 13:38:02;;;;;;;7.18;2.80;;;20.50;97.60;;;;;;6149786;28;20404;-68
2022/06/15 13:41:14;;;;;;;6.28;2.53;;;20.80;97.50;;;;;;6150467;28;20500;-68
2022/06/15 13:44:19;;;;;;;5.20;2.47;;;20.90;97.30;;;;;;6148144;29;20055;-68
2022/06/15 13:47:25;;;;;;;5.25;2.55;;;21.10;97.70;;;;;;6131284;28;20568;-68
2022/06/15 13:50:32;;;;;;;4.75;2.38;;;21.40;97.00;;;;;;6126760;29;20059;-71
2022/06/15 13:53:45;;;;;;;7.82;2.33;;;21.10;96.00;;;;;;6132750;29;20134;-68
2022/06/15 13:57:03;;;;;;;4.82;2.45;;;20.90;96.90;;;;;;6150414;28;20130;-68
2022/06/15 14:00:15;;;;;;;5.10;2.25;;;21.10;96.40;;;;;;6141340;29;20052;-69
2022/06/15 14:03:26;;;;;;;4.50;2.28;;;21.00;96.10;;;;;;6130413;29;20051;-69
2022/06/15 14:06:38;;;;;;;4.72;2.22;;;21.00;97.20;;;;;;6150403;28;20051;-68
2022/06/15 14:09:51;;;;;;;6.50;2.50;;;21.10;96.80;;;;;;6149151;28;20086;-68
2022/06/15 14:13:09;;;;;;;4.00;2.08;;;21.30;96.00;;;;;;6148157;28;20153;-68
2022/06/15 14:16:33;;;;;;;3.75;2.50;;;21.40;95.80;;;;;;6149673;28;20224;-70
2022/06/15 14:19:39;;;;;;;5.53;2.47;;;20.70;95.80;;;;;;6144062;29;20069;-70
2022/06/15 14:22:48;;;;;;;4.80;2.30;;;20.80;95.80;;;;;;6142821;28;20078;-72
2022/06/15 14:25:51;;;;;;;6.28;2.42;;;20.70;94.80;;;;;;6150264;28;20051;-69
2022/06/15 14:29:02;;;;;;;4.95;2.38;;;20.70;95.90;;;;;;6148475;29;20492;-68
2022/06/15 14:32:07;;;;;;;3.92;2.00;;;20.90;96.60;;;;;;6143293;28;20058;-68
2022/06/15 14:35:17;;;;;;;5.43;2.45;;;21.00;96.60;;;;;;6146578;28;20061;-69
2022/06/15 14:38:23;;;;;;;8.13;2.22;;;21.00;95.10;;;;;;6135559;28;20043;-68
2022/06/15 14:41:29;;;;;;;5.47;2.20;;;20.70;95.40;;;;;;6139048;28;20062;-68
2022/06/15 14:44:31;;;;;;;4.35;2.22;;;21.00;96.60;;;;;;6145181;29;20055;-69
2022/06/15 14:47:35;;;;;;;5.47;2.50;;;21.30;95.00;;;;;;6143445;28;20066;-70
2022/06/15 14:50:38;;;;;;;7.10;2.08;;;21.00;95.00;;;;;;6146753;28;20059;-68
2022/06/15 14:53:42;;;;;;;;;;;21.00;94.90;;;;;;6136584;28;20055;-70
2022/06/15 14:56:56;;;;;;;4.15;2.00;;;21.00;95.60;;;;;;6134690;29;19929;-68
2022/06/15 15:00:01;;;;;;;5.88;2.05;;;21.00;95.30;;;;;;6145951;29;20062;-68
2022/06/15 15:03:05;;;;;;;5.40;2.15;;;21.10;95.30;;;;;;6140765;28;20047;-69
2022/06/15 15:06:12;;;;;;;5.25;2.08;;;21.00;94.10;;;;;;6145060;29;20145;-68
2022/06/15 15:09:14;;;;;;;5.97;2.08;;;21.20;94.90;;;;;;6139226;28;20066;-71
2022/06/15 15:12:16;;;;;;;7.82;2.67;;;21.20;94.00;;;;;;6140398;28;20051;-70
2022/06/15 15:15:19;;;;;;;5.47;2.03;;;21.10;94.20;;;;;;6148381;29;20066;-70
2022/06/15 15:18:25;;;;;;;4.75;1.95;;;21.00;94.20;;;;;;6151633;29;20118;-72
2022/06/15 15:21:31;;;;;;;5.10;1.75;;;20.90;93.80;;;;;;6150551;28;20502;-69
2022/06/15 15:24:36;;;;;;;5.65;2.50;;;20.90;94.70;;;;;;6152744;28;20051;-69
2022/06/15 15:35:02;;;;;;;4.35;2.33;;;20.70;94.90;;;;;;6151135;28;20087;-69
2022/06/15 15:38:18;;;;;;;;;;;20.60;95.20;;;;;;6153292;28;20416;-69
2022/06/15 15:41:20;;;;;;;5.55;2.20;;;20.50;94.40;;;;;;6151313;28;20391;-71
2022/06/15 15:44:22;;;;;;;4.70;2.00;;;20.60;94.60;;;;;;6144350;29;20473;-72
2022/06/15 15:47:24;;;;;;;4.70;2.20;;;20.30;94.60;;;;;;6144733;28;20039;-72
2022/06/15 15:50:28;;;;;;;6.53;2.20;;;20.30;94.30;;;;;;6147846;28;20051;-71
2022/06/15 15:53:30;;;;;;;6.05;2.33;;;20.40;94.60;;;;;;6151210;29;20051;-71
2022/06/15 15:56:32;;;;;;;4.80;2.08;;;20.30;94.80;;;;;;6143137;28;20051;-70
2022/06/15 15:59:34;;;;;;;6.35;2.50;;;20.20;95.20;;;;;;6150756;28;20054;-71
2022/06/15 16:02:40;;;;;;;3.85;2.03;;;19.80;94.80;;;;;;6145006;28;20074;-70
2022/06/15 16:05:45;;;;;;;4.15;2.13;;;19.80;95.00;;;;;;6148782;29;20051;-71
2022/06/15 16:08:48;;;;;;;4.28;2.00;;;19.90;95.30;;;;;;6151510;28;20094;-71
2022/06/15 16:11:50;;;;;;;6.97;2.35;;;20.10;95.10;;;;;;6151558;28;20416;-71
2022/06/15 16:14:52;;;;;;;4.93;2.05;;;20.10;94.70;;;;;;6148523;28;20062;-72
2022/06/15 16:17:54;;;;;;;4.75;2.10;;;20.10;95.40;;;;;;6149221;28;20107;-72
2022/06/15 16:20:59;;;;;;;5.13;2.05;;;20.20;94.70;;;;;;6145311;28;20539;-72
2022/06/15 16:24:02;;;;;;;4.97;2.40;;;20.00;95.50;;;;;;6151352;28;20130;-71
2022/06/15 16:27:04;;;;;;;3.28;1.85;;;20.00;95.10;;;;;;6148879;28;20051;-74
2022/06/15 16:30:07;;;;;;;4.00;2.38;;;19.90;94.20;;;;;;6150094;29;20059;-71
2022/06/15 16:33:11;;;;;;;4.53;2.37;;;19.80;95.50;;;;;;6141670;29;20091;-71
2022/06/15 16:36:16;;;;;;;5.35;2.30;;;19.90;94.90;;;;;;6139681;28;20153;-71
2022/06/15 16:39:18;;;;;;;5.13;2.03;;;19.90;95.00;;;;;;6135535;29;20043;-71
2022/06/15 16:42:23;;;;;;;4.13;2.38;;;19.90;96.00;;;;;;6151203;28;20488;-71